sensor_id;sensor_type;location;lat;lon;timestamp;P1;durP1;ratioP1;P2;durP2;ratioP2
7823;SDS011;3957;48.61947800;9.05303100;2022-09-01T00:00:58;15.45;;;11.32;;
7823;SDS011;3957;48.61947800;9.05303100;2022-09-01T00:02:19;13.23;;;11.13;;
7823;SDS011;3957;48.61947800;9.05303100;2022-09-01T00:03:40;13.75;;;10.93;;
7823;SDS011;3957;48.61947800;9.05303100;2022-09-01T00:05:02;15.40;;;11.18;;
7823;SDS011;3957;48.61947800;9.05303100;2022-09-01T00:06:25;14.70;;;10.30;;
7823;SDS011;3957;48.61947800;9.05303100;2022-09-01T00:07:46;15.75;;;10.70;;
7823;SDS011;3957;48.61947800;9.05303100;2022-09-01T00:09:10;15.60;;;12.13;;
7823;SDS011;3957;48.61947800;9.05303100;2022-09-01T00:10:32;20.23;;;13.27;;
7823;SDS011;3957;48.61947800;9.05303100;2022-09-01T00:11:53;14.32;;;11.05;;
7823;SDS011;3957;48.61947800;9.05303100;2022-09-01T00:13:15;15.70;;;12.07;;
7823;SDS011;3957;48.61947800;9.05303100;2022-09-01T00:14:37;16.40;;;10.43;;
7823;SDS011;3957;48.61947800;9.05303100;2022-09-01T00:15:59;15.85;;;11.05;;
7823;SDS011;3957;48.61947800;9.05303100;2022-09-01T00:17:23;13.70;;;10.70;;
7823;SDS011;3957;48.61947800;9.05303100;2022-09-01T00:18:45;14.40;;;10.93;;
7823;SDS011;3957;48.61947800;9.05303100;2022-09-01T00:20:11;17.75;;;11.55;;
7823;SDS011;3957;48.61947800;9.05303100;2022-09-01T00:21:34;16.55;;;12.45;;
7823;SDS011;3957;48.61947800;9.05303100;2022-09-01T00:22:58;20.67;;;12.43;;
7823;SDS011;3957;48.61947800;9.05303100;2022-09-01T00:24:20;17.75;;;11.68;;
7823;SDS011;3957;48.61947800;9.05303100;2022-09-01T00:25:42;20.15;;;13.13;;
7823;SDS011;3957;48.61947800;9.05303100;2022-09-01T00:27:03;18.02;;;13.20;;
7823;SDS011;3957;48.61947800;9.05303100;2022-09-01T00:28:23;21.05;;;14.35;;
7823;SDS011;3957;48.61947800;9.05303100;2022-09-01T00:29:44;16.88;;;11.88;;
7823;SDS011;3957;48.61947800;9.05303100;2022-09-01T00:31:05;14.45;;;10.85;;
7823;SDS011;3957;48.61947800;9.05303100;2022-09-01T00:32:27;16.23;;;10.93;;
7823;SDS011;3957;48.61947800;9.05303100;2022-09-01T00:33:48;14.43;;;11.20;;
7823;SDS011;3957;48.61947800;9.05303100;2022-09-01T00:35:09;15.38;;;10.68;;
7823;SDS011;3957;48.61947800;9.05303100;2022-09-01T00:36:30;16.40;;;10.57;;
7823;SDS011;3957;48.61947800;9.05303100;2022-09-01T00:37:51;14.02;;;10.50;;
7823;SDS011;3957;48.61947800;9.05303100;2022-09-01T00:39:12;15.15;;;10.98;;
7823;SDS011;3957;48.61947800;9.05303100;2022-09-01T00:40:33;13.77;;;11.23;;
7823;SDS011;3957;48.61947800;9.05303100;2022-09-01T00:41:54;14.68;;;10.95;;
7823;SDS011;3957;48.61947800;9.05303100;2022-09-01T00:45:07;14.30;;;10.73;;
7823;SDS011;3957;48.61947800;9.05303100;2022-09-01T00:46:31;12.23;;;10.60;;
7823;SDS011;3957;48.61947800;9.05303100;2022-09-01T00:47:56;14.50;;;11.18;;
7823;SDS011;3957;48.61947800;9.05303100;2022-09-01T00:49:25;11.75;;;9.73;;
7823;SDS011;3957;48.61947800;9.05303100;2022-09-01T00:50:51;12.73;;;11.07;;
7823;SDS011;3957;48.61947800;9.05303100;2022-09-01T00:52:13;12.10;;;10.20;;
7823;SDS011;3957;48.61947800;9.05303100;2022-09-01T00:53:35;11.25;;;9.40;;
7823;SDS011;3957;48.61947800;9.05303100;2022-09-01T00:55:01;11.20;;;9.75;;
7823;SDS011;3957;48.61947800;9.05303100;2022-09-01T00:56:32;11.80;;;9.57;;
7823;SDS011;3957;48.61947800;9.05303100;2022-09-01T00:57:55;12.02;;;9.85;;
7823;SDS011;3957;48.61947800;9.05303100;2022-09-01T00:59:17;15.98;;;11.93;;
7823;SDS011;3957;48.61947800;9.05303100;2022-09-01T01:00:41;14.00;;;10.52;;
7823;SDS011;3957;48.61947800;9.05303100;2022-09-01T01:02:05;13.82;;;10.50;;
7823;SDS011;3957;48.61947800;9.05303100;2022-09-01T01:03:26;11.95;;;9.80;;
7823;SDS011;3957;48.61947800;9.05303100;2022-09-01T01:04:49;11.35;;;9.25;;
7823;SDS011;3957;48.61947800;9.05303100;2022-09-01T01:06:12;11.95;;;9.48;;
7823;SDS011;3957;48.61947800;9.05303100;2022-09-01T01:07:36;12.53;;;9.77;;
7823;SDS011;3957;48.61947800;9.05303100;2022-09-01T01:09:01;12.65;;;10.05;;
7823;SDS011;3957;48.61947800;9.05303100;2022-09-01T01:10:21;14.75;;;11.07;;
7823;SDS011;3957;48.61947800;9.05303100;2022-09-01T01:11:43;14.43;;;10.02;;
7823;SDS011;3957;48.61947800;9.05303100;2022-09-01T01:13:11;12.73;;;10.15;;
7823;SDS011;3957;48.61947800;9.05303100;2022-09-01T01:14:34;11.98;;;10.07;;
7823;SDS011;3957;48.61947800;9.05303100;2022-09-01T01:15:56;12.90;;;10.65;;
7823;SDS011;3957;48.61947800;9.05303100;2022-09-01T01:17:19;14.63;;;11.07;;
7823;SDS011;3957;48.61947800;9.05303100;2022-09-01T01:18:41;15.40;;;11.93;;
7823;SDS011;3957;48.61947800;9.05303100;2022-09-01T01:20:03;12.65;;;10.70;;
7823;SDS011;3957;48.61947800;9.05303100;2022-09-01T01:21:44;13.00;;;10.45;;
7823;SDS011;3957;48.61947800;9.05303100;2022-09-01T01:23:44;13.82;;;11.25;;
7823;SDS011;3957;48.61947800;9.05303100;2022-09-01T01:25:10;13.73;;;11.10;;
7823;SDS011;3957;48.61947800;9.05303100;2022-09-01T01:26:32;12.13;;;10.63;;
7823;SDS011;3957;48.61947800;9.05303100;2022-09-01T01:29:51;11.13;;;9.60;;
7823;SDS011;3957;48.61947800;9.05303100;2022-09-01T01:31:15;13.82;;;11.00;;
7823;SDS011;3957;48.61947800;9.05303100;2022-09-01T01:32:38;12.57;;;10.65;;
7823;SDS011;3957;48.61947800;9.05303100;2022-09-01T01:34:03;14.02;;;11.50;;
7823;SDS011;3957;48.61947800;9.05303100;2022-09-01T01:35:27;14.75;;;11.10;;
7823;SDS011;3957;48.61947800;9.05303100;2022-09-01T01:36:49;15.98;;;12.63;;
7823;SDS011;3957;48.61947800;9.05303100;2022-09-01T01:38:10;17.00;;;13.02;;
7823;SDS011;3957;48.61947800;9.05303100;2022-09-01T01:39:31;20.48;;;14.23;;
7823;SDS011;3957;48.61947800;9.05303100;2022-09-01T01:40:52;17.70;;;13.60;;
7823;SDS011;3957;48.61947800;9.05303100;2022-09-01T01:42:14;19.00;;;13.10;;
7823;SDS011;3957;48.61947800;9.05303100;2022-09-01T01:43:37;16.20;;;13.05;;
7823;SDS011;3957;48.61947800;9.05303100;2022-09-01T01:44:58;17.00;;;12.20;;
7823;SDS011;3957;48.61947800;9.05303100;2022-09-01T01:46:19;15.32;;;11.70;;
7823;SDS011;3957;48.61947800;9.05303100;2022-09-01T01:47:39;16.10;;;11.73;;
7823;SDS011;3957;48.61947800;9.05303100;2022-09-01T01:49:01;17.00;;;13.02;;
7823;SDS011;3957;48.61947800;9.05303100;2022-09-01T01:50:26;15.70;;;12.07;;
7823;SDS011;3957;48.61947800;9.05303100;2022-09-01T01:51:51;14.93;;;11.25;;
7823;SDS011;3957;48.61947800;9.05303100;2022-09-01T01:53:17;16.42;;;12.07;;
7823;SDS011;3957;48.61947800;9.05303100;2022-09-01T01:54:40;14.73;;;11.57;;
7823;SDS011;3957;48.61947800;9.05303100;2022-09-01T01:56:03;15.18;;;11.93;;
7823;SDS011;3957;48.61947800;9.05303100;2022-09-01T01:57:28;15.65;;;11.65;;
7823;SDS011;3957;48.61947800;9.05303100;2022-09-01T01:58:52;15.02;;;11.80;;
7823;SDS011;3957;48.61947800;9.05303100;2022-09-01T02:00:17;13.10;;;10.60;;
7823;SDS011;3957;48.61947800;9.05303100;2022-09-01T02:01:41;14.30;;;11.07;;
7823;SDS011;3957;48.61947800;9.05303100;2022-09-01T02:03:03;16.30;;;12.05;;
7823;SDS011;3957;48.61947800;9.05303100;2022-09-01T02:04:24;13.07;;;11.10;;
7823;SDS011;3957;48.61947800;9.05303100;2022-09-01T02:05:49;14.35;;;11.63;;
7823;SDS011;3957;48.61947800;9.05303100;2022-09-01T02:07:14;14.00;;;10.68;;
7823;SDS011;3957;48.61947800;9.05303100;2022-09-01T02:08:35;13.95;;;10.77;;
7823;SDS011;3957;48.61947800;9.05303100;2022-09-01T02:09:58;11.23;;;9.63;;
7823;SDS011;3957;48.61947800;9.05303100;2022-09-01T02:11:21;12.40;;;9.50;;
7823;SDS011;3957;48.61947800;9.05303100;2022-09-01T02:12:42;11.48;;;9.57;;
7823;SDS011;3957;48.61947800;9.05303100;2022-09-01T02:14:04;10.05;;;8.70;;
7823;SDS011;3957;48.61947800;9.05303100;2022-09-01T02:15:27;10.55;;;9.32;;
7823;SDS011;3957;48.61947800;9.05303100;2022-09-01T02:16:48;12.98;;;10.68;;
7823;SDS011;3957;48.61947800;9.05303100;2022-09-01T02:18:10;11.63;;;9.30;;
7823;SDS011;3957;48.61947800;9.05303100;2022-09-01T02:19:33;10.35;;;9.15;;
7823;SDS011;3957;48.61947800;9.05303100;2022-09-01T02:20:57;10.15;;;8.55;;
7823;SDS011;3957;48.61947800;9.05303100;2022-09-01T02:22:19;9.07;;;8.18;;
7823;SDS011;3957;48.61947800;9.05303100;2022-09-01T02:23:41;9.50;;;8.20;;
7823;SDS011;3957;48.61947800;9.05303100;2022-09-01T02:25:05;12.13;;;10.10;;
7823;SDS011;3957;48.61947800;9.05303100;2022-09-01T02:26:28;13.93;;;11.48;;
7823;SDS011;3957;48.61947800;9.05303100;2022-09-01T02:27:52;12.05;;;10.20;;
7823;SDS011;3957;48.61947800;9.05303100;2022-09-01T02:29:16;13.82;;;10.38;;
7823;SDS011;3957;48.61947800;9.05303100;2022-09-01T02:30:42;14.70;;;11.45;;
7823;SDS011;3957;48.61947800;9.05303100;2022-09-01T02:32:08;11.25;;;9.43;;
7823;SDS011;3957;48.61947800;9.05303100;2022-09-01T02:33:31;12.30;;;10.48;;
7823;SDS011;3957;48.61947800;9.05303100;2022-09-01T02:34:52;13.75;;;11.38;;
7823;SDS011;3957;48.61947800;9.05303100;2022-09-01T02:36:15;11.00;;;9.57;;
7823;SDS011;3957;48.61947800;9.05303100;2022-09-01T02:37:37;9.45;;;8.45;;
7823;SDS011;3957;48.61947800;9.05303100;2022-09-01T02:38:58;9.52;;;8.25;;
7823;SDS011;3957;48.61947800;9.05303100;2022-09-01T02:40:19;13.18;;;10.13;;
7823;SDS011;3957;48.61947800;9.05303100;2022-09-01T02:41:40;14.87;;;11.53;;
7823;SDS011;3957;48.61947800;9.05303100;2022-09-01T02:43:01;13.57;;;9.68;;
7823;SDS011;3957;48.61947800;9.05303100;2022-09-01T02:44:22;12.25;;;9.52;;
7823;SDS011;3957;48.61947800;9.05303100;2022-09-01T02:45:43;11.13;;;9.25;;
7823;SDS011;3957;48.61947800;9.05303100;2022-09-01T02:47:04;12.00;;;10.10;;
7823;SDS011;3957;48.61947800;9.05303100;2022-09-01T02:48:29;14.18;;;10.50;;
7823;SDS011;3957;48.61947800;9.05303100;2022-09-01T02:50:02;15.38;;;11.10;;
7823;SDS011;3957;48.61947800;9.05303100;2022-09-01T02:51:23;14.35;;;11.45;;
7823;SDS011;3957;48.61947800;9.05303100;2022-09-01T02:52:45;13.38;;;11.15;;
7823;SDS011;3957;48.61947800;9.05303100;2022-09-01T02:54:08;13.85;;;10.50;;
7823;SDS011;3957;48.61947800;9.05303100;2022-09-01T02:55:29;14.82;;;10.57;;
7823;SDS011;3957;48.61947800;9.05303100;2022-09-01T02:56:51;17.50;;;12.07;;
7823;SDS011;3957;48.61947800;9.05303100;2022-09-01T02:58:14;13.88;;;11.40;;
7823;SDS011;3957;48.61947800;9.05303100;2022-09-01T02:59:39;12.60;;;10.37;;
7823;SDS011;3957;48.61947800;9.05303100;2022-09-01T03:01:01;13.27;;;11.07;;
7823;SDS011;3957;48.61947800;9.05303100;2022-09-01T03:02:22;13.77;;;10.32;;
7823;SDS011;3957;48.61947800;9.05303100;2022-09-01T03:03:43;13.65;;;10.73;;
7823;SDS011;3957;48.61947800;9.05303100;2022-09-01T03:05:04;11.60;;;10.38;;
7823;SDS011;3957;48.61947800;9.05303100;2022-09-01T03:06:27;12.75;;;10.25;;
7823;SDS011;3957;48.61947800;9.05303100;2022-09-01T03:07:51;14.02;;;10.00;;
7823;SDS011;3957;48.61947800;9.05303100;2022-09-01T03:09:16;12.68;;;10.27;;
7823;SDS011;3957;48.61947800;9.05303100;2022-09-01T03:10:39;11.00;;;9.50;;
7823;SDS011;3957;48.61947800;9.05303100;2022-09-01T03:12:01;13.82;;;10.52;;
7823;SDS011;3957;48.61947800;9.05303100;2022-09-01T03:13:23;13.48;;;10.73;;
7823;SDS011;3957;48.61947800;9.05303100;2022-09-01T03:14:44;15.43;;;11.60;;
7823;SDS011;3957;48.61947800;9.05303100;2022-09-01T03:16:05;14.67;;;11.07;;
7823;SDS011;3957;48.61947800;9.05303100;2022-09-01T03:17:28;16.27;;;11.55;;
7823;SDS011;3957;48.61947800;9.05303100;2022-09-01T03:18:49;14.20;;;11.15;;
7823;SDS011;3957;48.61947800;9.05303100;2022-09-01T03:20:12;12.68;;;10.30;;
7823;SDS011;3957;48.61947800;9.05303100;2022-09-01T03:21:33;13.82;;;11.10;;
7823;SDS011;3957;48.61947800;9.05303100;2022-09-01T03:22:55;12.15;;;10.23;;
7823;SDS011;3957;48.61947800;9.05303100;2022-09-01T03:24:17;12.70;;;10.27;;
7823;SDS011;3957;48.61947800;9.05303100;2022-09-01T03:25:39;13.93;;;10.95;;
7823;SDS011;3957;48.61947800;9.05303100;2022-09-01T03:27:02;13.43;;;10.70;;
7823;SDS011;3957;48.61947800;9.05303100;2022-09-01T03:28:23;14.02;;;10.70;;
7823;SDS011;3957;48.61947800;9.05303100;2022-09-01T03:29:44;13.05;;;10.48;;
7823;SDS011;3957;48.61947800;9.05303100;2022-09-01T03:31:05;12.80;;;10.48;;
7823;SDS011;3957;48.61947800;9.05303100;2022-09-01T03:32:27;12.52;;;10.05;;
7823;SDS011;3957;48.61947800;9.05303100;2022-09-01T03:33:49;12.50;;;10.25;;
7823;SDS011;3957;48.61947800;9.05303100;2022-09-01T03:35:17;13.57;;;10.50;;
7823;SDS011;3957;48.61947800;9.05303100;2022-09-01T03:36:38;14.30;;;10.75;;
7823;SDS011;3957;48.61947800;9.05303100;2022-09-01T03:38:00;13.10;;;10.55;;
7823;SDS011;3957;48.61947800;9.05303100;2022-09-01T03:39:21;14.07;;;11.50;;
7823;SDS011;3957;48.61947800;9.05303100;2022-09-01T03:40:42;11.32;;;9.75;;
7823;SDS011;3957;48.61947800;9.05303100;2022-09-01T03:42:04;12.70;;;9.73;;
7823;SDS011;3957;48.61947800;9.05303100;2022-09-01T03:43:29;13.07;;;10.63;;
7823;SDS011;3957;48.61947800;9.05303100;2022-09-01T03:44:52;11.57;;;9.82;;
7823;SDS011;3957;48.61947800;9.05303100;2022-09-01T03:46:13;11.95;;;9.30;;
7823;SDS011;3957;48.61947800;9.05303100;2022-09-01T03:47:42;10.70;;;8.98;;
7823;SDS011;3957;48.61947800;9.05303100;2022-09-01T03:49:03;10.20;;;8.27;;
7823;SDS011;3957;48.61947800;9.05303100;2022-09-01T03:50:28;10.50;;;8.40;;
7823;SDS011;3957;48.61947800;9.05303100;2022-09-01T03:51:50;10.27;;;8.65;;
7823;SDS011;3957;48.61947800;9.05303100;2022-09-01T03:53:15;10.20;;;8.85;;
7823;SDS011;3957;48.61947800;9.05303100;2022-09-01T03:54:38;9.93;;;8.40;;
7823;SDS011;3957;48.61947800;9.05303100;2022-09-01T03:55:59;10.98;;;9.80;;
7823;SDS011;3957;48.61947800;9.05303100;2022-09-01T03:57:21;10.70;;;9.35;;
7823;SDS011;3957;48.61947800;9.05303100;2022-09-01T03:58:42;12.40;;;9.73;;
7823;SDS011;3957;48.61947800;9.05303100;2022-09-01T04:00:07;10.57;;;8.80;;
7823;SDS011;3957;48.61947800;9.05303100;2022-09-01T04:01:34;10.23;;;8.68;;
7823;SDS011;3957;48.61947800;9.05303100;2022-09-01T04:02:59;10.20;;;8.50;;
7823;SDS011;3957;48.61947800;9.05303100;2022-09-01T04:04:21;9.18;;;7.82;;
7823;SDS011;3957;48.61947800;9.05303100;2022-09-01T04:05:42;13.40;;;9.55;;
7823;SDS011;3957;48.61947800;9.05303100;2022-09-01T04:07:04;11.85;;;9.98;;
7823;SDS011;3957;48.61947800;9.05303100;2022-09-01T04:08:25;11.98;;;9.52;;
7823;SDS011;3957;48.61947800;9.05303100;2022-09-01T04:09:50;10.38;;;8.95;;
7823;SDS011;3957;48.61947800;9.05303100;2022-09-01T04:11:14;10.65;;;8.80;;
7823;SDS011;3957;48.61947800;9.05303100;2022-09-01T04:12:39;12.05;;;9.70;;
7823;SDS011;3957;48.61947800;9.05303100;2022-09-01T04:14:00;11.20;;;8.70;;
7823;SDS011;3957;48.61947800;9.05303100;2022-09-01T04:15:22;13.43;;;9.40;;
7823;SDS011;3957;48.61947800;9.05303100;2022-09-01T04:16:43;17.90;;;10.60;;
7823;SDS011;3957;48.61947800;9.05303100;2022-09-01T04:18:23;14.55;;;10.32;;
7823;SDS011;3957;48.61947800;9.05303100;2022-09-01T04:19:44;17.25;;;10.23;;
7823;SDS011;3957;48.61947800;9.05303100;2022-09-01T04:21:06;11.90;;;9.63;;
7823;SDS011;3957;48.61947800;9.05303100;2022-09-01T04:22:29;11.83;;;9.70;;
7823;SDS011;3957;48.61947800;9.05303100;2022-09-01T04:23:52;10.68;;;9.02;;
7823;SDS011;3957;48.61947800;9.05303100;2022-09-01T04:25:13;11.27;;;9.05;;
7823;SDS011;3957;48.61947800;9.05303100;2022-09-01T04:26:34;10.30;;;8.40;;
7823;SDS011;3957;48.61947800;9.05303100;2022-09-01T04:27:55;13.60;;;9.23;;
7823;SDS011;3957;48.61947800;9.05303100;2022-09-01T04:29:18;9.77;;;8.02;;
7823;SDS011;3957;48.61947800;9.05303100;2022-09-01T04:30:51;11.18;;;8.95;;
7823;SDS011;3957;48.61947800;9.05303100;2022-09-01T04:32:16;10.57;;;8.40;;
7823;SDS011;3957;48.61947800;9.05303100;2022-09-01T04:33:44;10.75;;;8.65;;
7823;SDS011;3957;48.61947800;9.05303100;2022-09-01T04:35:13;11.63;;;9.18;;
7823;SDS011;3957;48.61947800;9.05303100;2022-09-01T04:36:37;9.73;;;8.43;;
7823;SDS011;3957;48.61947800;9.05303100;2022-09-01T04:38:00;9.63;;;8.48;;
7823;SDS011;3957;48.61947800;9.05303100;2022-09-01T04:39:22;12.15;;;8.93;;
7823;SDS011;3957;48.61947800;9.05303100;2022-09-01T04:40:44;13.68;;;10.00;;
7823;SDS011;3957;48.61947800;9.05303100;2022-09-01T04:42:05;14.70;;;9.80;;
7823;SDS011;3957;48.61947800;9.05303100;2022-09-01T04:43:29;14.15;;;10.13;;
7823;SDS011;3957;48.61947800;9.05303100;2022-09-01T04:44:50;10.07;;;8.07;;
7823;SDS011;3957;48.61947800;9.05303100;2022-09-01T04:46:13;12.70;;;8.95;;
7823;SDS011;3957;48.61947800;9.05303100;2022-09-01T04:47:35;10.65;;;8.85;;
7823;SDS011;3957;48.61947800;9.05303100;2022-09-01T04:49:02;12.35;;;8.68;;
7823;SDS011;3957;48.61947800;9.05303100;2022-09-01T04:50:29;11.77;;;8.18;;
7823;SDS011;3957;48.61947800;9.05303100;2022-09-01T04:52:24;12.10;;;9.00;;
7823;SDS011;3957;48.61947800;9.05303100;2022-09-01T04:53:47;12.25;;;9.35;;
7823;SDS011;3957;48.61947800;9.05303100;2022-09-01T04:55:11;10.52;;;8.85;;
7823;SDS011;3957;48.61947800;9.05303100;2022-09-01T04:56:37;14.05;;;9.98;;
7823;SDS011;3957;48.61947800;9.05303100;2022-09-01T04:58:03;11.77;;;9.57;;
7823;SDS011;3957;48.61947800;9.05303100;2022-09-01T04:59:24;11.63;;;9.18;;
7823;SDS011;3957;48.61947800;9.05303100;2022-09-01T05:00:52;13.50;;;9.90;;
7823;SDS011;3957;48.61947800;9.05303100;2022-09-01T05:02:15;11.25;;;8.55;;
7823;SDS011;3957;48.61947800;9.05303100;2022-09-01T05:03:36;12.43;;;9.35;;
7823;SDS011;3957;48.61947800;9.05303100;2022-09-01T05:05:26;13.73;;;10.43;;
7823;SDS011;3957;48.61947800;9.05303100;2022-09-01T05:06:49;13.27;;;10.25;;
7823;SDS011;3957;48.61947800;9.05303100;2022-09-01T05:08:19;13.25;;;10.05;;
7823;SDS011;3957;48.61947800;9.05303100;2022-09-01T05:09:43;11.02;;;9.38;;
7823;SDS011;3957;48.61947800;9.05303100;2022-09-01T05:11:37;13.27;;;10.07;;
7823;SDS011;3957;48.61947800;9.05303100;2022-09-01T05:13:12;14.43;;;10.13;;
7823;SDS011;3957;48.61947800;9.05303100;2022-09-01T05:14:38;13.60;;;10.23;;
7823;SDS011;3957;48.61947800;9.05303100;2022-09-01T05:16:04;12.57;;;9.48;;
7823;SDS011;3957;48.61947800;9.05303100;2022-09-01T05:17:32;12.73;;;10.07;;
7823;SDS011;3957;48.61947800;9.05303100;2022-09-01T05:18:53;11.65;;;9.48;;
7823;SDS011;3957;48.61947800;9.05303100;2022-09-01T05:20:16;13.43;;;10.32;;
7823;SDS011;3957;48.61947800;9.05303100;2022-09-01T05:21:40;11.82;;;10.02;;
7823;SDS011;3957;48.61947800;9.05303100;2022-09-01T05:23:06;16.80;;;12.27;;
7823;SDS011;3957;48.61947800;9.05303100;2022-09-01T05:24:28;14.25;;;10.70;;
7823;SDS011;3957;48.61947800;9.05303100;2022-09-01T05:25:51;14.05;;;10.35;;
7823;SDS011;3957;48.61947800;9.05303100;2022-09-01T05:27:14;12.75;;;10.15;;
7823;SDS011;3957;48.61947800;9.05303100;2022-09-01T05:28:38;12.32;;;10.13;;
7823;SDS011;3957;48.61947800;9.05303100;2022-09-01T05:29:58;12.07;;;10.23;;
7823;SDS011;3957;48.61947800;9.05303100;2022-09-01T05:31:21;13.57;;;10.68;;
7823;SDS011;3957;48.61947800;9.05303100;2022-09-01T05:32:43;14.88;;;11.45;;
7823;SDS011;3957;48.61947800;9.05303100;2022-09-01T05:34:08;15.18;;;11.63;;
7823;SDS011;3957;48.61947800;9.05303100;2022-09-01T05:35:30;16.65;;;12.30;;
7823;SDS011;3957;48.61947800;9.05303100;2022-09-01T05:36:51;15.85;;;13.00;;
7823;SDS011;3957;48.61947800;9.05303100;2022-09-01T05:38:14;20.10;;;14.13;;
7823;SDS011;3957;48.61947800;9.05303100;2022-09-01T05:39:35;21.08;;;14.30;;
7823;SDS011;3957;48.61947800;9.05303100;2022-09-01T05:40:58;16.42;;;12.57;;
7823;SDS011;3957;48.61947800;9.05303100;2022-09-01T05:42:28;16.50;;;13.00;;
7823;SDS011;3957;48.61947800;9.05303100;2022-09-01T05:43:49;16.02;;;12.05;;
7823;SDS011;3957;48.61947800;9.05303100;2022-09-01T05:45:12;16.30;;;12.40;;
7823;SDS011;3957;48.61947800;9.05303100;2022-09-01T05:46:34;15.05;;;11.85;;
7823;SDS011;3957;48.61947800;9.05303100;2022-09-01T05:47:57;15.10;;;12.30;;
7823;SDS011;3957;48.61947800;9.05303100;2022-09-01T05:49:19;15.25;;;12.38;;
7823;SDS011;3957;48.61947800;9.05303100;2022-09-01T05:50:41;16.48;;;12.90;;
7823;SDS011;3957;48.61947800;9.05303100;2022-09-01T05:52:02;16.30;;;11.73;;
7823;SDS011;3957;48.61947800;9.05303100;2022-09-01T05:53:25;15.38;;;11.32;;
7823;SDS011;3957;48.61947800;9.05303100;2022-09-01T05:54:48;15.75;;;11.20;;
7823;SDS011;3957;48.61947800;9.05303100;2022-09-01T05:56:12;16.23;;;12.43;;
7823;SDS011;3957;48.61947800;9.05303100;2022-09-01T05:57:35;14.10;;;11.85;;
7823;SDS011;3957;48.61947800;9.05303100;2022-09-01T05:58:56;15.43;;;11.70;;
7823;SDS011;3957;48.61947800;9.05303100;2022-09-01T06:00:21;14.53;;;11.80;;
7823;SDS011;3957;48.61947800;9.05303100;2022-09-01T06:01:42;12.77;;;10.52;;
7823;SDS011;3957;48.61947800;9.05303100;2022-09-01T06:03:03;13.73;;;10.75;;
7823;SDS011;3957;48.61947800;9.05303100;2022-09-01T06:04:26;12.45;;;10.63;;
7823;SDS011;3957;48.61947800;9.05303100;2022-09-01T06:06:00;12.55;;;10.65;;
7823;SDS011;3957;48.61947800;9.05303100;2022-09-01T06:07:32;12.30;;;10.75;;
7823;SDS011;3957;48.61947800;9.05303100;2022-09-01T06:08:54;14.93;;;10.65;;
7823;SDS011;3957;48.61947800;9.05303100;2022-09-01T06:10:20;13.73;;;10.45;;
7823;SDS011;3957;48.61947800;9.05303100;2022-09-01T06:11:41;13.05;;;10.40;;
7823;SDS011;3957;48.61947800;9.05303100;2022-09-01T06:13:02;11.63;;;9.18;;
7823;SDS011;3957;48.61947800;9.05303100;2022-09-01T06:14:25;14.63;;;11.85;;
7823;SDS011;3957;48.61947800;9.05303100;2022-09-01T06:15:47;13.13;;;10.25;;
7823;SDS011;3957;48.61947800;9.05303100;2022-09-01T06:17:09;14.32;;;11.40;;
7823;SDS011;3957;48.61947800;9.05303100;2022-09-01T06:18:31;12.52;;;10.68;;
7823;SDS011;3957;48.61947800;9.05303100;2022-09-01T06:19:54;14.35;;;11.18;;
7823;SDS011;3957;48.61947800;9.05303100;2022-09-01T06:21:16;16.70;;;11.55;;
7823;SDS011;3957;48.61947800;9.05303100;2022-09-01T06:22:37;15.05;;;11.90;;
7823;SDS011;3957;48.61947800;9.05303100;2022-09-01T06:23:59;15.70;;;12.88;;
7823;SDS011;3957;48.61947800;9.05303100;2022-09-01T06:25:20;14.10;;;11.80;;
7823;SDS011;3957;48.61947800;9.05303100;2022-09-01T06:26:41;17.38;;;13.48;;
7823;SDS011;3957;48.61947800;9.05303100;2022-09-01T06:28:04;13.35;;;10.80;;
7823;SDS011;3957;48.61947800;9.05303100;2022-09-01T06:29:25;14.25;;;11.23;;
7823;SDS011;3957;48.61947800;9.05303100;2022-09-01T06:30:46;14.60;;;10.77;;
7823;SDS011;3957;48.61947800;9.05303100;2022-09-01T06:32:08;14.73;;;11.80;;
7823;SDS011;3957;48.61947800;9.05303100;2022-09-01T06:33:30;13.18;;;10.60;;
7823;SDS011;3957;48.61947800;9.05303100;2022-09-01T06:34:51;13.93;;;11.52;;
7823;SDS011;3957;48.61947800;9.05303100;2022-09-01T06:36:13;16.75;;;12.82;;
7823;SDS011;3957;48.61947800;9.05303100;2022-09-01T06:37:37;15.03;;;12.23;;
7823;SDS011;3957;48.61947800;9.05303100;2022-09-01T06:38:58;13.38;;;10.52;;
7823;SDS011;3957;48.61947800;9.05303100;2022-09-01T06:40:23;16.40;;;12.07;;
7823;SDS011;3957;48.61947800;9.05303100;2022-09-01T06:41:45;17.38;;;12.90;;
7823;SDS011;3957;48.61947800;9.05303100;2022-09-01T06:43:09;14.25;;;10.98;;
7823;SDS011;3957;48.61947800;9.05303100;2022-09-01T06:44:33;14.75;;;10.73;;
7823;SDS011;3957;48.61947800;9.05303100;2022-09-01T06:45:59;12.55;;;9.73;;
7823;SDS011;3957;48.61947800;9.05303100;2022-09-01T06:47:21;13.40;;;10.23;;
7823;SDS011;3957;48.61947800;9.05303100;2022-09-01T06:48:44;13.90;;;10.25;;
7823;SDS011;3957;48.61947800;9.05303100;2022-09-01T06:50:08;12.88;;;9.93;;
7823;SDS011;3957;48.61947800;9.05303100;2022-09-01T06:51:30;13.52;;;10.93;;
7823;SDS011;3957;48.61947800;9.05303100;2022-09-01T06:52:53;14.13;;;10.68;;
7823;SDS011;3957;48.61947800;9.05303100;2022-09-01T06:54:21;12.40;;;9.98;;
7823;SDS011;3957;48.61947800;9.05303100;2022-09-01T06:55:42;11.27;;;9.52;;
7823;SDS011;3957;48.61947800;9.05303100;2022-09-01T06:57:03;12.02;;;9.90;;
7823;SDS011;3957;48.61947800;9.05303100;2022-09-01T06:58:24;14.82;;;11.10;;
7823;SDS011;3957;48.61947800;9.05303100;2022-09-01T06:59:46;12.68;;;10.20;;
7823;SDS011;3957;48.61947800;9.05303100;2022-09-01T07:01:09;14.90;;;11.57;;
7823;SDS011;3957;48.61947800;9.05303100;2022-09-01T07:02:36;16.00;;;11.48;;
7823;SDS011;3957;48.61947800;9.05303100;2022-09-01T07:04:22;13.38;;;10.35;;
7823;SDS011;3957;48.61947800;9.05303100;2022-09-01T07:05:47;13.27;;;10.37;;
7823;SDS011;3957;48.61947800;9.05303100;2022-09-01T07:07:13;12.07;;;9.38;;
7823;SDS011;3957;48.61947800;9.05303100;2022-09-01T07:09:09;13.05;;;10.32;;
7823;SDS011;3957;48.61947800;9.05303100;2022-09-01T07:10:38;12.82;;;10.63;;
7823;SDS011;3957;48.61947800;9.05303100;2022-09-01T07:12:09;12.70;;;10.20;;
7823;SDS011;3957;48.61947800;9.05303100;2022-09-01T07:13:30;13.57;;;9.40;;
7823;SDS011;3957;48.61947800;9.05303100;2022-09-01T07:14:52;12.38;;;10.48;;
7823;SDS011;3957;48.61947800;9.05303100;2022-09-01T07:16:17;11.40;;;9.25;;
7823;SDS011;3957;48.61947800;9.05303100;2022-09-01T07:17:47;10.38;;;8.50;;
7823;SDS011;3957;48.61947800;9.05303100;2022-09-01T07:19:13;9.68;;;8.18;;
7823;SDS011;3957;48.61947800;9.05303100;2022-09-01T07:20:55;9.95;;;7.85;;
7823;SDS011;3957;48.61947800;9.05303100;2022-09-01T07:22:16;12.65;;;10.18;;
7823;SDS011;3957;48.61947800;9.05303100;2022-09-01T07:23:41;10.85;;;9.13;;
7823;SDS011;3957;48.61947800;9.05303100;2022-09-01T07:25:03;11.05;;;9.02;;